createdAt,value
2023-02-15T07:27:13.728Z,90.00
2023-02-15T07:29:16.791Z,90.00
2023-02-15T07:30:18.910Z,90.00
2023-02-15T07:31:21.018Z,95.62
2023-02-15T07:32:23.135Z,95.62
2023-02-15T07:33:25.151Z,95.62
2023-02-15T07:34:27.160Z,95.62
2023-02-15T07:35:29.198Z,101.25
2023-02-15T07:36:31.192Z,101.25
2023-02-15T07:37:33.213Z,106.87
2023-02-15T07:38:35.237Z,106.87
2023-02-15T07:39:37.229Z,112.50
2023-02-15T07:40:39.297Z,112.50
2023-02-15T07:41:41.293Z,118.12
2023-02-15T07:42:43.336Z,118.12
2023-02-15T07:43:45.377Z,123.75
2023-02-15T07:44:47.419Z,123.75
2023-02-15T07:45:49.421Z,129.37
2023-02-15T07:46:51.499Z,129.37
2023-02-15T07:47:53.525Z,129.37
2023-02-15T07:48:55.540Z,135.00
2023-02-15T07:49:57.551Z,135.00
2023-02-15T07:50:59.585Z,135.00
2023-02-15T07:52:01.624Z,135.00
2023-02-15T07:53:03.656Z,135.00
2023-02-15T07:54:05.670Z,140.62
2023-02-15T07:55:07.675Z,140.62
2023-02-15T07:56:09.710Z,140.62
2023-02-15T07:57:11.719Z,140.62
2023-02-15T07:58:13.794Z,140.62
2023-02-15T07:59:15.816Z,146.25
2023-02-15T08:00:17.854Z,146.25
2023-02-15T08:01:19.837Z,146.25
2023-02-15T08:02:21.855Z,146.25
2023-02-15T08:03:23.990Z,146.25
2023-02-15T08:04:26.052Z,146.25
2023-02-15T08:05:28.079Z,151.87
2023-02-15T08:06:30.108Z,151.87
2023-02-15T08:07:32.121Z,151.87
2023-02-15T08:08:34.137Z,151.87
2023-02-15T08:09:36.154Z,151.87
2023-02-15T08:10:38.172Z,151.87
2023-02-15T08:11:40.202Z,151.87
2023-02-15T08:12:42.218Z,157.50
2023-02-15T08:13:44.258Z,157.50
2023-02-15T08:14:46.288Z,157.50
2023-02-15T08:15:48.306Z,157.50
2023-02-15T08:16:50.579Z,157.50
2023-02-15T08:17:51.579Z,157.50
2023-02-15T08:18:53.598Z,157.50
2023-02-15T08:19:55.651Z,157.50
2023-02-15T08:20:57.683Z,157.50
2023-02-15T08:21:59.728Z,157.50
2023-02-15T08:23:01.729Z,163.12
2023-02-15T08:24:03.777Z,163.12
2023-02-15T08:25:05.802Z,163.12
2023-02-15T08:26:08.526Z,163.12
2023-02-15T08:27:09.458Z,163.12
2023-02-15T08:28:11.496Z,163.12
2023-02-15T08:29:13.495Z,163.12
2023-02-15T08:30:15.565Z,163.12
2023-02-15T08:31:17.668Z,163.12
2023-02-15T08:32:19.788Z,163.12
2023-02-15T08:33:21.812Z,168.75
2023-02-15T08:34:23.803Z,168.75
2023-02-15T08:35:25.825Z,168.75
2023-02-15T08:36:27.855Z,168.75
2023-02-15T08:37:29.887Z,168.75
2023-02-15T08:38:33.484Z,168.75
2023-02-15T08:39:33.391Z,168.75
2023-02-15T08:40:35.400Z,168.75
2023-02-15T08:41:37.441Z,168.75
2023-02-15T08:42:39.460Z,168.75
2023-02-15T08:43:41.473Z,168.75
2023-02-15T08:44:43.500Z,168.75
2023-02-15T08:45:45.562Z,168.75
2023-02-15T08:46:47.568Z,168.75
2023-02-15T08:47:49.591Z,168.75
2023-02-15T08:48:51.602Z,168.75
2023-02-15T08:49:53.617Z,174.37
2023-02-15T08:50:55.638Z,168.75
2023-02-15T08:51:57.666Z,168.75
2023-02-15T08:52:59.696Z,168.75
2023-02-15T08:54:01.728Z,168.75
2023-02-15T08:55:03.756Z,174.37
2023-02-15T08:56:05.769Z,168.75
2023-02-15T08:57:07.808Z,168.75
2023-02-15T08:58:09.832Z,168.75
2023-02-15T08:59:11.846Z,168.75
2023-02-15T09:00:13.845Z,168.75
2023-02-15T09:01:15.925Z,168.75
2023-02-15T09:02:17.952Z,168.75
2023-02-15T09:03:19.975Z,168.75
2023-02-15T09:04:21.991Z,168.75
2023-02-15T09:05:24.007Z,168.75
2023-02-15T09:06:26.019Z,168.75
2023-02-15T09:07:28.066Z,168.75
2023-02-15T09:08:30.079Z,168.75
2023-02-15T09:09:32.093Z,168.75
2023-02-15T09:10:34.153Z,168.75
2023-02-15T09:11:36.197Z,168.75
2023-02-15T09:12:38.229Z,168.75
2023-02-15T09:13:40.315Z,163.12
2023-02-15T09:14:42.325Z,163.12
2023-02-15T09:15:44.449Z,163.12
2023-02-15T09:16:46.522Z,163.12
2023-02-15T09:17:48.578Z,163.12
2023-02-15T09:18:50.623Z,163.12
2023-02-15T09:19:52.694Z,163.12
2023-02-15T09:20:54.751Z,163.12
2023-02-15T09:21:56.845Z,163.12
2023-02-15T09:22:59.966Z,163.12
2023-02-15T09:24:00.900Z,157.50
2023-02-15T09:25:02.933Z,157.50
2023-02-15T09:26:04.983Z,157.50
2023-02-15T09:27:06.994Z,157.50
2023-02-15T09:28:11.647Z,157.50
2023-02-15T09:29:10.506Z,157.50
2023-02-15T09:30:12.582Z,157.50
2023-02-15T09:31:14.603Z,157.50
2023-02-15T09:32:16.656Z,157.50
2023-02-15T09:33:18.680Z,157.50
2023-02-15T09:34:20.689Z,157.50
2023-02-15T09:35:22.735Z,157.50
2023-02-15T09:36:24.802Z,157.50
2023-02-15T09:37:26.825Z,157.50
2023-02-15T09:38:28.855Z,157.50
2023-02-15T09:39:30.885Z,157.50
2023-02-15T09:40:32.908Z,157.50
2023-02-15T09:41:34.931Z,157.50
2023-02-15T09:42:36.963Z,157.50
2023-02-15T09:43:38.981Z,157.50
2023-02-15T09:44:41.018Z,157.50
2023-02-15T09:45:43.038Z,157.50
2023-02-15T09:46:45.059Z,157.50
2023-02-15T09:47:47.158Z,157.50
2023-02-15T09:48:49.177Z,157.50
2023-02-15T09:49:51.204Z,157.50
2023-02-15T09:50:53.228Z,157.50
2023-02-15T09:51:55.256Z,157.50
2023-02-15T09:52:57.258Z,157.50
2023-02-15T09:53:59.282Z,157.50
2023-02-15T09:55:01.324Z,157.50
2023-02-15T09:56:03.345Z,157.50
2023-02-15T09:57:05.362Z,157.50
2023-02-15T09:58:07.366Z,157.50
2023-02-15T09:59:09.398Z,157.50
2023-02-15T10:00:11.430Z,157.50
2023-02-15T10:01:13.502Z,157.50
2023-02-15T10:02:15.541Z,157.50
2023-02-15T10:03:17.537Z,157.50
2023-02-15T10:04:19.615Z,157.50
2023-02-15T10:05:21.611Z,157.50
2023-02-15T10:06:23.638Z,157.50
2023-02-15T10:07:25.658Z,157.50
2023-02-15T10:08:27.689Z,157.50
2023-02-15T10:09:29.715Z,151.87
2023-02-15T10:10:31.745Z,151.87
2023-02-15T10:11:33.780Z,151.87
2023-02-15T10:12:36.938Z,151.87
2023-02-15T10:13:37.922Z,151.87
2023-02-15T10:14:39.944Z,151.87
2023-02-15T10:15:41.977Z,151.87
2023-02-15T10:16:44.007Z,151.87
2023-02-15T10:17:46.054Z,151.87
2023-02-15T10:18:48.089Z,157.50
2023-02-15T10:19:50.100Z,151.87
2023-02-15T10:20:52.118Z,157.50
2023-02-15T10:21:54.157Z,157.50
2023-02-15T10:22:57.077Z,157.50
2023-02-15T10:24:07.349Z,157.50
2023-02-15T10:24:59.477Z,157.50
2023-02-15T10:26:01.960Z,157.50
2023-02-15T10:27:02.996Z,157.50
2023-02-15T10:28:05.021Z,157.50
2023-02-15T10:29:07.046Z,157.50
2023-02-15T10:30:09.163Z,157.50
2023-02-15T10:31:11.315Z,157.50
2023-02-15T10:32:13.533Z,157.50
2023-02-15T10:33:14.604Z,157.50
2023-02-15T10:34:16.649Z,157.50
2023-02-15T10:35:18.688Z,151.87
2023-02-15T10:36:20.697Z,151.87
2023-02-15T10:37:22.729Z,151.87
2023-02-15T10:38:24.760Z,151.87
2023-02-15T10:39:26.773Z,151.87
2023-02-15T10:40:28.781Z,151.87
2023-02-15T10:41:30.795Z,151.87
2023-02-15T10:42:32.813Z,151.87
2023-02-15T10:43:34.869Z,151.87
2023-02-15T10:44:36.900Z,157.50
2023-02-15T10:45:38.945Z,157.50
2023-02-15T10:46:40.968Z,157.50
2023-02-15T10:47:42.999Z,157.50
2023-02-15T10:48:45.022Z,157.50
2023-02-15T10:49:47.061Z,163.12
2023-02-15T10:50:49.074Z,168.75
2023-02-15T10:51:51.118Z,196.87
2023-02-15T10:52:53.125Z,562.50
2023-02-15T10:53:55.260Z,1029.37
2023-02-15T10:54:57.280Z,1158.75
2023-02-15T10:55:59.372Z,1170.00
2023-02-15T10:57:01.393Z,1203.75
2023-02-15T10:58:04.188Z,1231.87
2023-02-15T10:59:05.126Z,1215.00
2023-02-15T11:00:07.232Z,1220.62
2023-02-15T11:01:09.393Z,1209.37
2023-02-15T11:02:11.454Z,1237.50
2023-02-15T11:03:13.564Z,1310.62
2023-02-15T11:04:17.407Z,1305.00
2023-02-15T11:05:17.321Z,1226.25
2023-02-15T11:06:19.359Z,1198.12
2023-02-15T11:07:21.399Z,1265.62
2023-02-15T11:08:23.424Z,1310.62
2023-02-15T11:09:25.450Z,1316.25
2023-02-15T11:10:27.490Z,1316.25
2023-02-15T11:11:29.557Z,1310.62
2023-02-15T11:12:31.668Z,1327.50
2023-02-15T11:13:33.739Z,1366.87
2023-02-15T11:14:35.781Z,1361.25
2023-02-15T11:15:37.824Z,1350.00
2023-02-15T11:16:39.824Z,1333.12
2023-02-15T11:17:41.861Z,1310.62
2023-02-15T11:18:43.888Z,1310.62
2023-02-15T11:19:45.965Z,1316.25
2023-02-15T11:20:48.044Z,1316.25
2023-02-15T11:21:50.069Z,1361.25
2023-02-15T11:22:52.124Z,1395.00
2023-02-15T11:23:54.140Z,1372.50
2023-02-15T11:24:56.197Z,1406.25
2023-02-15T11:25:58.226Z,1468.12
2023-02-15T11:27:00.336Z,1490.62
2023-02-15T11:28:02.326Z,1456.87
2023-02-15T11:29:04.357Z,1395.00
2023-02-15T11:30:06.457Z,1383.75
2023-02-15T11:31:08.651Z,1445.62
2023-02-15T11:32:09.707Z,1490.62
2023-02-15T11:33:11.770Z,1485.00
2023-02-15T11:34:13.794Z,1383.75
2023-02-15T11:35:15.839Z,1310.62
2023-02-15T11:36:17.857Z,1355.62
2023-02-15T11:37:19.880Z,1417.50
2023-02-15T11:38:21.904Z,1411.87
2023-02-15T11:39:23.937Z,1406.25
2023-02-15T11:40:25.965Z,1428.75
2023-02-15T11:41:27.980Z,1423.12
2023-02-15T11:42:30.006Z,1423.12
2023-02-15T11:43:32.048Z,1445.62
2023-02-15T11:44:34.126Z,1423.12
2023-02-15T11:45:36.164Z,1378.12
2023-02-15T11:46:38.243Z,1366.87
2023-02-15T11:47:40.294Z,1350.00
2023-02-15T11:48:42.321Z,1372.50
2023-02-15T11:49:44.389Z,1451.25
2023-02-15T11:50:46.472Z,1451.25
2023-02-15T11:51:48.487Z,1378.12
2023-02-15T11:52:50.520Z,1361.25
2023-02-15T11:53:52.561Z,1423.12
2023-02-15T11:54:54.572Z,1417.50
2023-02-15T11:55:56.618Z,1372.50
2023-02-15T11:56:59.572Z,1361.25
2023-02-15T11:58:00.486Z,1378.12
2023-02-15T11:59:02.530Z,1355.62
2023-02-15T12:00:04.631Z,1389.37
2023-02-15T12:01:06.758Z,1417.50
2023-02-15T12:02:08.801Z,1406.25
2023-02-15T12:03:10.891Z,1411.87
2023-02-15T12:04:12.936Z,1411.87
2023-02-15T12:05:14.954Z,1344.37
2023-02-15T12:06:17.002Z,1305.00
2023-02-15T12:07:19.021Z,1333.12
2023-02-15T12:08:21.068Z,1372.50
2023-02-15T12:09:23.742Z,1344.37
2023-02-15T12:10:24.689Z,1333.12
2023-02-15T12:11:26.725Z,1350.00
2023-02-15T12:12:28.746Z,1361.25
2023-02-15T12:13:30.791Z,1350.00
2023-02-15T12:14:32.833Z,1299.37
2023-02-15T12:15:34.875Z,1288.12
2023-02-15T12:16:36.901Z,877.50
2023-02-15T12:17:38.941Z,236.25
2023-02-15T12:18:40.960Z,151.87
2023-02-15T12:19:42.997Z,151.87
2023-02-15T12:20:45.047Z,151.87
2023-02-15T12:21:47.122Z,151.87
2023-02-15T12:22:49.163Z,146.25
2023-02-15T12:23:51.184Z,146.25
2023-02-15T12:24:53.224Z,146.25
2023-02-15T12:25:55.307Z,146.25
2023-02-15T12:26:56.439Z,146.25
2023-02-15T12:27:58.477Z,146.25
2023-02-15T12:29:00.515Z,146.25
2023-02-15T12:30:02.633Z,146.25
2023-02-15T12:31:05.040Z,140.62
2023-02-15T12:32:06.255Z,140.62
2023-02-15T12:33:08.280Z,140.62
2023-02-15T12:34:10.326Z,140.62
2023-02-15T12:35:12.365Z,140.62
2023-02-15T12:36:14.378Z,140.62
2023-02-15T12:37:16.398Z,140.62
2023-02-15T12:38:18.511Z,140.62
2023-02-15T12:39:20.628Z,140.62
2023-02-15T12:40:22.628Z,135.00
2023-02-15T12:41:24.636Z,135.00
2023-02-15T12:42:26.715Z,135.00
2023-02-15T12:43:28.799Z,135.00
2023-02-15T12:44:31.654Z,135.00
2023-02-15T12:45:32.615Z,135.00
2023-02-15T12:46:38.283Z,135.00
2023-02-15T12:47:36.030Z,135.00
2023-02-15T12:48:40.659Z,135.00
2023-02-15T12:49:39.565Z,135.00
2023-02-15T12:50:41.576Z,135.00
2023-02-15T12:51:43.581Z,129.37
2023-02-15T12:52:45.643Z,129.37
2023-02-15T12:53:47.676Z,129.37
2023-02-15T12:54:49.712Z,129.37
2023-02-15T12:55:51.758Z,129.37
2023-02-15T12:56:53.807Z,129.37
2023-02-15T12:57:55.831Z,129.37
2023-02-15T12:58:57.876Z,129.37
2023-02-15T12:59:59.904Z,129.37
2023-02-15T13:01:02.255Z,129.37
2023-02-15T13:02:03.380Z,129.37
2023-02-15T13:03:05.462Z,129.37
2023-02-15T13:04:07.563Z,129.37
2023-02-15T13:05:09.637Z,129.37
2023-02-15T13:06:11.703Z,123.75
2023-02-15T13:07:13.754Z,123.75
2023-02-15T13:08:15.802Z,123.75
2023-02-15T13:09:17.865Z,123.75
2023-02-15T13:10:19.877Z,123.75
2023-02-15T13:11:21.905Z,123.75
2023-02-15T13:12:23.934Z,123.75
2023-02-15T13:13:25.985Z,123.75
2023-02-15T13:14:28.007Z,123.75
2023-02-15T13:15:30.056Z,123.75
2023-02-15T13:16:32.194Z,123.75
2023-02-15T13:17:34.196Z,118.12
2023-02-15T13:18:36.251Z,118.12
2023-02-15T13:19:38.273Z,118.12
2023-02-15T13:20:40.308Z,118.12
2023-02-15T13:21:42.351Z,118.12
2023-02-15T13:22:45.061Z,118.12
2023-02-15T13:23:46.036Z,118.12
2023-02-15T13:24:48.294Z,118.12
2023-02-15T13:25:49.234Z,118.12
2023-02-15T13:26:51.257Z,118.12
2023-02-15T13:27:53.302Z,118.12
2023-02-15T13:28:55.332Z,118.12
2023-02-15T13:29:57.405Z,112.50
2023-02-15T13:30:59.504Z,112.50
2023-02-15T13:32:01.722Z,112.50
2023-02-15T13:33:02.703Z,112.50
2023-02-15T13:34:04.699Z,112.50
2023-02-15T13:35:06.840Z,112.50
2023-02-15T13:36:08.896Z,112.50
2023-02-15T13:37:11.026Z,112.50
2023-02-15T13:38:13.025Z,112.50
2023-02-15T13:39:15.062Z,112.50
2023-02-15T13:40:17.112Z,112.50
2023-02-15T13:41:19.125Z,112.50
2023-02-15T13:42:21.169Z,106.87
2023-02-15T13:43:23.198Z,106.87
2023-02-15T13:44:25.243Z,106.87
2023-02-15T13:45:27.306Z,106.87
2023-02-15T13:46:29.319Z,106.87
2023-02-15T13:47:31.330Z,106.87
2023-02-15T13:48:46.925Z,106.87
2023-02-15T13:49:34.860Z,106.87
2023-02-15T13:50:37.255Z,106.87
2023-02-15T13:51:38.152Z,106.87
2023-02-15T13:52:40.162Z,106.87
2023-02-15T13:53:42.194Z,106.87
2023-02-15T13:54:44.233Z,106.87
2023-02-15T13:55:46.282Z,106.87
2023-02-15T13:56:48.300Z,106.87
2023-02-15T13:57:50.369Z,101.25
2023-02-15T13:58:52.406Z,101.25
2023-02-15T13:59:54.756Z,101.25
2023-02-15T14:00:55.712Z,101.25
2023-02-15T14:01:57.729Z,101.25
2023-02-15T14:02:59.763Z,101.25
2023-02-15T14:04:01.879Z,101.25
2023-02-15T14:05:03.924Z,101.25
2023-02-15T14:06:05.946Z,101.25
2023-02-15T14:07:07.987Z,101.25
2023-02-15T14:08:10.009Z,101.25
2023-02-15T14:09:12.052Z,101.25
2023-02-15T14:10:14.091Z,101.25
2023-02-15T14:11:16.120Z,95.62
2023-02-15T14:12:18.145Z,95.62
2023-02-15T14:13:20.179Z,95.62
2023-02-15T14:14:22.245Z,95.62
2023-02-15T14:15:24.256Z,95.62
2023-02-15T14:16:26.341Z,95.62
2023-02-15T14:17:28.354Z,95.62
2023-02-15T14:18:30.365Z,95.62
2023-02-15T14:19:32.405Z,95.62
2023-02-15T14:20:34.434Z,95.62
2023-02-15T14:21:36.479Z,95.62
2023-02-15T14:22:38.519Z,95.62
2023-02-15T14:23:40.559Z,95.62
2023-02-15T14:24:42.599Z,90.00
2023-02-15T14:25:44.667Z,90.00
2023-02-15T14:26:46.738Z,90.00
2023-02-15T14:27:48.738Z,90.00
2023-02-15T14:28:50.802Z,90.00
2023-02-15T14:29:53.588Z,90.00
2023-02-15T14:30:54.681Z,90.00
2023-02-15T14:31:55.730Z,90.00
2023-02-15T14:32:57.780Z,90.00
2023-02-15T14:33:59.824Z,90.00
2023-02-15T14:35:01.857Z,90.00
2023-02-15T14:36:03.917Z,90.00
2023-02-15T14:37:05.946Z,84.37
2023-02-15T14:38:08.007Z,84.37
2023-02-15T14:39:10.032Z,84.37
2023-02-15T14:40:12.053Z,84.37
2023-02-15T14:41:14.132Z,84.37
2023-02-15T14:42:16.137Z,84.37
2023-02-15T14:43:18.178Z,84.37
2023-02-15T14:44:20.190Z,84.37
2023-02-15T14:45:22.211Z,84.37
2023-02-15T14:46:24.262Z,84.37
2023-02-15T14:47:26.285Z,84.37
2023-02-15T14:48:28.655Z,78.75
2023-02-15T14:49:29.880Z,78.75
2023-02-15T14:50:31.066Z,78.75
2023-02-15T14:51:32.117Z,78.75
2023-02-15T14:52:34.123Z,78.75
2023-02-15T14:53:36.163Z,78.75
2023-02-15T14:54:38.205Z,78.75
2023-02-15T14:55:40.224Z,78.75
2023-02-15T14:56:42.286Z,78.75
2023-02-15T14:57:44.314Z,73.12
2023-02-15T14:58:46.324Z,73.12
2023-02-15T14:59:48.371Z,73.12
2023-02-15T15:00:50.398Z,73.12
2023-02-15T15:01:52.513Z,73.12
2023-02-15T15:02:54.535Z,73.12
2023-02-15T15:03:56.625Z,73.12
2023-02-15T15:04:58.615Z,73.12
2023-02-15T15:06:02.722Z,73.12
2023-02-15T15:07:02.559Z,67.50
2023-02-15T15:08:04.553Z,67.50
2023-02-15T15:09:06.577Z,67.50
2023-02-15T15:10:08.621Z,67.50
2023-02-15T15:11:10.669Z,67.50
2023-02-15T15:12:12.720Z,67.50
2023-02-15T15:13:14.752Z,67.50
2023-02-15T15:14:16.798Z,67.50
2023-02-15T15:15:18.829Z,67.50
2023-02-15T15:16:20.881Z,67.50
2023-02-15T15:17:22.898Z,67.50
2023-02-15T15:18:24.916Z,67.50
2023-02-15T15:19:26.961Z,67.50
2023-02-15T15:20:28.980Z,67.50
2023-02-15T15:21:31.008Z,61.87
2023-02-15T15:22:33.061Z,61.87
2023-02-15T15:23:35.155Z,61.87
2023-02-15T15:24:37.151Z,61.87
2023-02-15T15:25:39.199Z,61.87
2023-02-15T15:26:41.223Z,61.87
2023-02-15T15:27:43.891Z,61.87
2023-02-15T15:28:44.830Z,61.87
2023-02-15T15:29:46.849Z,56.25
2023-02-15T15:30:58.174Z,56.25
2023-02-15T15:31:50.545Z,56.25
2023-02-15T15:32:51.511Z,56.25
2023-02-15T15:33:53.537Z,56.25
2023-02-15T15:34:55.560Z,56.25
2023-02-15T15:35:57.594Z,50.62
2023-02-15T15:36:59.609Z,50.62
2023-02-15T15:38:01.629Z,50.62
2023-02-15T15:39:03.643Z,50.62
2023-02-15T15:40:05.690Z,50.62
2023-02-15T15:41:07.687Z,50.62
2023-02-15T15:42:09.718Z,45.00
2023-02-15T15:43:11.738Z,45.00
2023-02-15T15:44:13.761Z,45.00
2023-02-15T15:45:15.742Z,45.00
2023-02-15T15:46:17.810Z,45.00
2023-02-15T15:47:19.801Z,45.00
2023-02-15T15:48:21.975Z,39.37
2023-02-15T15:49:23.034Z,39.37
2023-02-15T15:50:25.067Z,39.37
2023-02-15T15:51:27.084Z,39.37
2023-02-15T15:52:29.112Z,39.37
2023-02-15T15:53:31.132Z,33.75
2023-02-15T15:54:33.150Z,33.75
2023-02-15T15:55:35.221Z,33.75
2023-02-15T15:56:37.303Z,33.75
2023-02-15T15:57:39.365Z,33.75
2023-02-15T15:58:41.410Z,33.75
2023-02-15T15:59:43.464Z,28.12
2023-02-15T16:00:45.551Z,28.12
2023-02-15T16:01:47.664Z,28.12
2023-02-15T16:02:49.664Z,28.12
2023-02-15T16:03:51.697Z,28.12
2023-02-15T16:04:53.719Z,22.50
2023-02-15T16:05:55.709Z,22.50
2023-02-15T16:06:57.738Z,22.50
2023-02-15T16:07:59.762Z,22.50
2023-02-15T16:09:01.837Z,16.87
2023-02-15T16:10:03.904Z,16.87
2023-02-15T16:11:05.925Z,16.87
2023-02-15T16:12:07.941Z,16.87
2023-02-15T16:13:09.965Z,16.87
2023-02-15T16:14:11.982Z,11.25
2023-02-15T16:15:13.994Z,11.25
2023-02-15T16:16:16.081Z,11.25
2023-02-15T16:17:18.062Z,11.25
2023-02-15T16:18:20.089Z,11.25
2023-02-15T16:19:22.151Z,11.25
2023-02-15T16:20:24.170Z,5.62
2023-02-15T16:21:26.180Z,5.62
2023-02-15T16:22:28.210Z,5.62
2023-02-15T16:23:30.240Z,5.62
2023-02-15T16:24:32.280Z,5.62
2023-02-15T16:25:34.316Z,5.62
2023-02-15T16:26:36.326Z,5.62
